createdAt,value
2022-08-19T00:01:30.758Z,101127.75
2022-08-19T00:04:02.707Z,101134.28
2022-08-19T00:06:31.003Z,101119.47
2022-08-19T00:08:59.114Z,101133.38
2022-08-19T00:11:28.707Z,101126.38
2022-08-19T00:13:57.681Z,101131.19
2022-08-19T00:16:26.335Z,101131.19
2022-08-19T00:18:56.883Z,101137.94
2022-08-19T00:21:25.991Z,101131.41
2022-08-19T00:23:52.851Z,101143.63
2022-08-19T00:26:19.956Z,101142.75
2022-08-19T00:28:47.369Z,101144.47
2022-08-19T00:31:14.152Z,101142.75
2022-08-19T00:33:41.152Z,101150.97
2022-08-19T00:36:10.654Z,101150.34
2022-08-19T00:38:40.298Z,101157.06
2022-08-19T00:41:07.557Z,101145.63
2022-08-19T00:43:35.050Z,101147.72
2022-08-19T00:46:05.855Z,101150.66
2022-08-19T00:48:34.678Z,101151.00
2022-08-19T00:51:02.652Z,101145.94
2022-08-19T00:53:32.845Z,101144.63
2022-08-19T00:56:02.271Z,101145.00
2022-08-19T00:58:33.776Z,101147.09
2022-08-19T01:01:01.727Z,101155.50
2022-08-19T01:03:28.643Z,101141.97
2022-08-19T01:05:56.755Z,101142.16
2022-08-19T01:08:24.277Z,101135.00
2022-08-19T01:10:55.415Z,101144.06
2022-08-19T01:13:27.741Z,101142.34
2022-08-19T01:16:05.545Z,101144.25
2022-08-19T01:18:36.439Z,101148.69
2022-08-19T01:21:10.413Z,101154.19
2022-08-19T01:23:46.327Z,101155.84
2022-08-19T01:26:16.655Z,101153.78
2022-08-19T01:28:46.010Z,101151.72
2022-08-19T01:31:26.813Z,101154.47
2022-08-19T01:33:57.374Z,101154.63
2022-08-19T01:36:29.029Z,101159.47
2022-08-19T01:38:56.427Z,101150.75
2022-08-19T01:41:24.572Z,101152.38
2022-08-19T01:44:13.368Z,101154.00
2022-08-19T01:46:40.525Z,101156.06
2022-08-19T01:49:09.218Z,101149.09
2022-08-19T01:51:39.614Z,101162.22
2022-08-19T01:54:07.164Z,101156.53
2022-08-19T01:56:33.890Z,101155.50
2022-08-19T01:59:09.494Z,101156.34
2022-08-19T02:01:36.395Z,101160.78
2022-08-19T02:04:03.551Z,101155.31
2022-08-19T02:06:30.439Z,101163.53
2022-08-19T02:08:57.900Z,101164.16
2022-08-19T02:11:27.618Z,101157.47
2022-08-19T02:13:55.894Z,101161.72
2022-08-19T02:16:23.142Z,101157.06
2022-08-19T02:18:49.875Z,101154.53
2022-08-19T02:21:21.786Z,101158.69
2022-08-19T02:23:49.789Z,101162.03
2022-08-19T02:26:17.171Z,101170.63
2022-08-19T02:28:44.214Z,101163.84
2022-08-19T02:31:16.052Z,101161.69
2022-08-19T02:33:42.873Z,101154.19
2022-08-19T02:36:11.735Z,101148.44
2022-08-19T02:38:39.402Z,101143.34
2022-08-19T02:41:12.528Z,101146.66
2022-08-19T02:43:44.439Z,101153.34
2022-08-19T02:46:33.261Z,101144.84
2022-08-19T02:49:07.345Z,101134.47
2022-08-19T02:51:40.571Z,101128.53
2022-08-19T02:54:10.212Z,101138.63
2022-08-19T02:56:38.940Z,101138.19
2022-08-19T02:59:11.177Z,101137.50
2022-08-19T03:01:41.801Z,101142.34
2022-08-19T03:04:11.245Z,101144.38
2022-08-19T03:06:40.356Z,101145.41
2022-08-19T03:09:07.177Z,101144.78
2022-08-19T03:11:34.980Z,101137.59
2022-08-19T03:14:03.338Z,101142.41
2022-08-19T03:16:33.540Z,101127.03
2022-08-19T03:19:02.465Z,101124.47
2022-08-19T03:21:32.293Z,101137.13
2022-08-19T03:24:02.308Z,101143.84
2022-08-19T03:26:30.301Z,101145.88
2022-08-19T03:28:58.593Z,101146.91
2022-08-19T03:31:41.912Z,101153.44
2022-08-19T03:34:27.556Z,101152.75
2022-08-19T03:36:59.605Z,101154.66
2022-08-19T03:39:27.423Z,101153.81
2022-08-19T03:42:29.307Z,101152.75
2022-08-19T03:44:46.242Z,101152.13
2022-08-19T03:47:17.337Z,101136.91
2022-08-19T03:49:44.889Z,101128.03
2022-08-19T03:52:11.950Z,101135.59
2022-08-19T03:54:39.414Z,101137.50
2022-08-19T03:57:07.239Z,101138.13
2022-08-19T03:59:36.448Z,101142.19
2022-08-19T04:02:08.844Z,101145.63
2022-08-19T04:04:36.487Z,101132.78
2022-08-19T04:07:03.480Z,101147.47
2022-08-19T04:09:30.187Z,101143.22
2022-08-19T04:11:58.760Z,101150.78
2022-08-19T04:14:31.272Z,101147.19
2022-08-19T04:16:58.495Z,101153.91
2022-08-19T04:19:25.511Z,101152.19
2022-08-19T04:21:55.262Z,101158.69
2022-08-19T04:24:23.571Z,101156.97
2022-08-19T04:26:51.249Z,101155.31
2022-08-19T04:29:26.344Z,101160.09
2022-08-19T04:31:55.298Z,101161.13
2022-08-19T04:34:24.421Z,101163.22
2022-08-19T04:36:53.299Z,101160.66
2022-08-19T04:39:44.847Z,101156.22
2022-08-19T04:42:31.124Z,101161.69
2022-08-19T04:44:59.601Z,101159.16
2022-08-19T04:47:47.024Z,101160.16
2022-08-19T04:50:14.401Z,101161.38
2022-08-19T04:52:44.576Z,101163.47
2022-08-19T04:55:13.681Z,101160.94
2022-08-19T04:57:41.463Z,101167.22
2022-08-19T05:00:10.432Z,101165.53
2022-08-19T05:02:37.578Z,101173.91
2022-08-19T05:05:04.941Z,101179.38
2022-08-19T05:07:31.914Z,101178.91
2022-08-19T05:09:59.252Z,101176.66
2022-08-19T05:12:28.895Z,101175.63
2022-08-19T05:14:57.895Z,101181.78
2022-08-19T05:17:27.945Z,101180.06
2022-08-19T05:20:15.377Z,101175.44
2022-08-19T05:22:44.705Z,101178.34
2022-08-19T05:25:15.466Z,101179.38
2022-08-19T05:27:43.127Z,101183.63
2022-08-19T05:30:11.333Z,101189.09
2022-08-19T05:32:38.711Z,101194.56
2022-08-19T05:35:06.369Z,101199.84
2022-08-19T05:37:33.086Z,101200.53
2022-08-19T05:39:59.958Z,101195.06
2022-08-19T05:42:27.601Z,101201.38
2022-08-19T05:44:54.536Z,101206.00
2022-08-19T05:47:22.340Z,101214.22
2022-08-19T05:49:51.027Z,101222.41
2022-08-19T05:52:18.956Z,101215.06
2022-08-19T05:54:51.321Z,101215.75
2022-08-19T05:57:20.341Z,101220.16
2022-08-19T05:59:57.916Z,101230.06
2022-08-19T06:02:29.762Z,101228.00
2022-08-19T06:04:56.604Z,101232.44
2022-08-19T06:07:23.590Z,101232.25
2022-08-19T06:10:00.299Z,101235.66
2022-08-19T06:12:29.893Z,101246.41
2022-08-19T06:15:01.098Z,101242.47
2022-08-19T06:17:31.614Z,101243.13
2022-08-19T06:19:59.823Z,101250.09
2022-08-19T06:22:27.627Z,101248.91
2022-08-19T06:24:55.413Z,101251.06
2022-08-19T06:27:22.980Z,101257.41
2022-08-19T06:29:49.995Z,101257.22
2022-08-19T06:32:18.923Z,101265.25
2022-08-19T06:34:45.861Z,101271.38
2022-08-19T06:37:12.858Z,101268.63
2022-08-19T06:39:42.454Z,101276.84
2022-08-19T06:42:12.888Z,101276.84
2022-08-19T06:44:43.021Z,101273.06
2022-08-19T06:47:23.416Z,101273.94
2022-08-19T06:50:01.255Z,101279.88
2022-08-19T06:52:36.448Z,101275.25
2022-08-19T06:55:06.090Z,101278.47
2022-08-19T06:57:33.764Z,101275.19
2022-08-19T07:00:01.347Z,101272.09
2022-08-19T07:02:28.105Z,101274.28
2022-08-19T07:04:55.057Z,101268.41
2022-08-19T07:07:23.419Z,101280.69
2022-08-19T07:09:59.361Z,101277.41
2022-08-19T07:12:31.135Z,101277.69
2022-08-19T07:14:58.862Z,101287.25
2022-08-19T07:17:26.244Z,101292.56
2022-08-19T07:19:54.315Z,101295.91
2022-08-19T07:22:24.254Z,101295.72
2022-08-19T07:24:52.684Z,101291.63
2022-08-19T07:27:24.210Z,101296.06
2022-08-19T07:29:57.207Z,101300.81
2022-08-19T07:32:28.043Z,101305.53
2022-08-19T07:34:56.525Z,101301.56
2022-08-19T07:37:28.322Z,101293.59
2022-08-19T07:39:57.802Z,101297.03
2022-08-19T07:42:24.644Z,101288.13
2022-08-19T07:44:51.356Z,101294.00
2022-08-19T07:47:50.390Z,101290.63
2022-08-19T07:50:09.386Z,101300.25
2022-08-19T07:52:40.152Z,101296.19
2022-08-19T07:55:39.780Z,101302.03
2022-08-19T07:57:56.393Z,101310.25
2022-08-19T08:00:24.421Z,101312.34
2022-08-19T08:02:52.173Z,101313.66
2022-08-19T08:05:43.390Z,101320.91
2022-08-19T08:08:29.940Z,101329.03
2022-08-19T08:10:57.528Z,101327.91
2022-08-19T08:13:25.406Z,101321.50
2022-08-19T08:15:55.854Z,101336.78
2022-08-19T08:18:28.057Z,101322.38
2022-08-19T08:20:58.888Z,101321.97
2022-08-19T08:23:27.051Z,101322.75
2022-08-19T08:25:56.607Z,101310.91
2022-08-19T08:28:29.750Z,101319.66
2022-08-19T08:30:58.129Z,101313.84
2022-08-19T08:33:34.721Z,101321.13
2022-08-19T08:36:12.109Z,101321.69
2022-08-19T08:38:40.880Z,101321.47
2022-08-19T08:41:20.642Z,101332.03
2022-08-19T08:43:52.316Z,101323.66
2022-08-19T08:46:30.924Z,101324.53
2022-08-19T08:49:23.803Z,101322.00
2022-08-19T08:52:02.888Z,101322.00
2022-08-19T08:54:36.764Z,101335.16
2022-08-19T08:57:08.577Z,101330.09
2022-08-19T08:59:40.394Z,101315.03
2022-08-19T09:02:07.168Z,101324.63
2022-08-19T09:04:36.506Z,101316.50
2022-08-19T09:07:18.721Z,101313.25
2022-08-19T09:10:44.326Z,101306.19
2022-08-19T09:13:28.619Z,101309.88
2022-08-19T09:16:07.629Z,101322.38
2022-08-19T09:18:56.172Z,101323.28
2022-08-19T09:21:30.279Z,101325.66
2022-08-19T09:24:00.312Z,101334.75
2022-08-19T09:26:35.213Z,101327.16
2022-08-19T09:29:14.365Z,101328.28
2022-08-19T09:31:41.365Z,101329.31
2022-08-19T09:34:21.022Z,101329.09
2022-08-19T09:36:50.674Z,101321.25
2022-08-19T09:39:18.124Z,101316.13
2022-08-19T09:41:47.620Z,101320.28
2022-08-19T09:44:16.448Z,101304.75
2022-08-19T09:46:44.895Z,101310.72
2022-08-19T09:49:11.607Z,101303.91
2022-08-19T09:51:40.571Z,101295.69
2022-08-19T09:54:08.062Z,101297.03
2022-08-19T09:56:38.233Z,101317.66
2022-08-19T09:59:05.431Z,101315.88
2022-08-19T10:01:33.546Z,101308.94
2022-08-19T10:04:04.344Z,101312.78
2022-08-19T10:06:46.554Z,101308.56
2022-08-19T10:09:15.994Z,101303.47
2022-08-19T10:11:54.556Z,101295.00
2022-08-19T10:14:24.698Z,101293.94
2022-08-19T10:16:52.895Z,101291.59
2022-08-19T10:19:25.421Z,101289.28
2022-08-19T10:21:54.345Z,101292.03
2022-08-19T10:24:25.386Z,101290.34
2022-08-19T10:26:55.832Z,101294.16
2022-08-19T10:29:32.021Z,101296.69
2022-08-19T10:32:09.749Z,101304.25
2022-08-19T10:34:48.363Z,101308.69
2022-08-19T10:37:23.550Z,101310.56
2022-08-19T10:39:51.422Z,101312.72
2022-08-19T10:42:19.605Z,101303.59
2022-08-19T10:44:47.741Z,101314.63
2022-08-19T10:47:17.660Z,101311.25
2022-08-19T10:50:11.808Z,101312.75
2022-08-19T10:52:49.233Z,101324.19
2022-08-19T10:55:37.361Z,101313.16
2022-08-19T10:58:04.576Z,101318.66
2022-08-19T11:00:32.699Z,101320.16
2022-08-19T11:02:59.607Z,101315.28
2022-08-19T11:05:26.719Z,101318.47
2022-08-19T11:07:53.848Z,101319.59
2022-08-19T11:10:22.120Z,101316.13
2022-08-19T11:12:49.547Z,101309.59
2022-08-19T11:15:16.895Z,101309.50
2022-08-19T11:17:45.014Z,101306.25
2022-08-19T11:21:14.716Z,101300.75
2022-08-19T11:23:42.017Z,101303.44
2022-08-19T11:26:09.114Z,101296.53
2022-08-19T11:28:36.870Z,101295.97
2022-08-19T11:31:04.516Z,101300.22
2022-08-19T11:33:31.955Z,101301.09
2022-08-19T11:36:01.293Z,101297.34
2022-08-19T11:38:28.230Z,101293.34
2022-08-19T11:40:59.706Z,101292.69
2022-08-19T11:43:28.078Z,101295.41
2022-08-19T11:45:55.574Z,101292.00
2022-08-19T11:48:23.778Z,101284.56
2022-08-19T11:50:51.807Z,101278.03
2022-08-19T11:53:21.128Z,101292.63
2022-08-19T11:55:49.452Z,101281.88
2022-08-19T11:58:19.135Z,101283.84
2022-08-19T12:00:46.450Z,101294.91
2022-08-19T12:03:14.961Z,101290.25
2022-08-19T12:05:42.936Z,101291.66
2022-08-19T12:08:09.991Z,101287.13
2022-08-19T12:10:36.967Z,101290.97
2022-08-19T12:13:04.187Z,101286.97
2022-08-19T12:15:36.883Z,101290.34
2022-08-19T12:18:04.984Z,101276.19
2022-08-19T12:20:32.257Z,101292.34
2022-08-19T12:23:03.744Z,101283.84
2022-08-19T12:25:32.011Z,101272.19
2022-08-19T12:27:59.524Z,101278.28
2022-08-19T12:30:26.728Z,101277.63
2022-08-19T12:32:54.071Z,101274.22
2022-08-19T12:35:22.148Z,101278.47
2022-08-19T12:37:56.803Z,101270.44
2022-08-19T12:40:26.516Z,101285.97
2022-08-19T12:42:54.114Z,101283.16
2022-08-19T12:45:20.907Z,101286.03
2022-08-19T12:47:49.623Z,101277.56
2022-08-19T12:50:16.856Z,101272.44
2022-08-19T12:52:43.754Z,101270.56
2022-08-19T12:55:12.203Z,101273.84
2022-08-19T12:57:39.351Z,101280.09
2022-08-19T13:00:14.853Z,101281.09
2022-08-19T13:02:45.212Z,101286.09
2022-08-19T13:05:17.791Z,101276.28
2022-08-19T13:07:47.418Z,101281.41
2022-08-19T13:10:18.221Z,101276.97
2022-08-19T13:12:48.144Z,101279.69
2022-08-19T13:15:21.727Z,101277.06
2022-08-19T13:17:52.890Z,101291.63
2022-08-19T13:20:21.203Z,101284.16
2022-08-19T13:22:49.565Z,101285.72
2022-08-19T13:25:18.642Z,101275.09
2022-08-19T13:27:46.412Z,101283.97
2022-08-19T13:30:33.882Z,101288.09
2022-08-19T13:33:13.080Z,101280.31
2022-08-19T13:35:50.269Z,101261.50
2022-08-19T13:38:21.622Z,101273.19
2022-08-19T13:40:51.352Z,101261.63
2022-08-19T13:43:23.276Z,101262.53
2022-08-19T13:45:55.048Z,101265.19
2022-08-19T13:48:22.429Z,101260.66
2022-08-19T13:50:49.476Z,101264.38
2022-08-19T13:53:17.683Z,101262.59
2022-08-19T13:55:44.838Z,101259.34
2022-08-19T13:58:13.012Z,101265.22
2022-08-19T14:00:42.863Z,101266.50
2022-08-19T14:03:10.408Z,101277.66
2022-08-19T14:05:38.003Z,101266.38
2022-08-19T14:08:05.450Z,101257.66
2022-08-19T14:10:33.007Z,101265.00
2022-08-19T14:13:02.864Z,101261.56
2022-08-19T14:15:30.534Z,101258.22
2022-08-19T14:17:57.781Z,101263.88
2022-08-19T14:20:25.950Z,101259.31
2022-08-19T14:22:54.250Z,101259.91
2022-08-19T14:25:25.101Z,101256.75
2022-08-19T14:27:52.758Z,101252.03
2022-08-19T14:30:23.757Z,101260.78
2022-08-19T14:32:50.490Z,101269.91
2022-08-19T14:35:17.401Z,101261.38
2022-08-19T14:37:46.380Z,101283.56
2022-08-19T14:40:21.680Z,101289.88
2022-08-19T14:42:49.664Z,101294.88
2022-08-19T14:45:16.366Z,101314.06
2022-08-19T14:47:43.147Z,101306.75
2022-08-19T14:50:18.390Z,101321.44
2022-08-19T14:52:48.822Z,101323.06
2022-08-19T14:55:18.608Z,101319.09
2022-08-19T14:57:45.839Z,101332.72
2022-08-19T15:00:15.032Z,101325.66
2022-08-19T15:02:43.018Z,101317.66
2022-08-19T15:05:10.032Z,101319.66
2022-08-19T15:07:37.824Z,101329.47
2022-08-19T15:10:08.017Z,101310.44
2022-08-19T15:12:41.233Z,101312.28
2022-08-19T15:15:13.942Z,101313.88
2022-08-19T15:17:54.966Z,101318.16
2022-08-19T15:20:25.531Z,101318.53
2022-08-19T15:22:52.256Z,101300.53
2022-08-19T15:25:20.223Z,101306.31
2022-08-19T15:27:48.123Z,101306.56
2022-08-19T15:30:21.987Z,101299.97
2022-08-19T15:32:49.244Z,101301.34
2022-08-19T15:35:18.333Z,101298.28
2022-08-19T15:37:46.142Z,101304.53
2022-08-19T15:40:13.254Z,101308.75
2022-08-19T15:42:42.574Z,101309.63
2022-08-19T15:45:11.770Z,101312.44
2022-08-19T15:47:39.471Z,101292.88
2022-08-19T15:50:12.679Z,101301.78
2022-08-19T15:52:53.438Z,101295.72
2022-08-19T15:55:34.662Z,101324.38
2022-08-19T15:58:29.138Z,101310.75
2022-08-19T16:01:26.936Z,101326.25
2022-08-19T16:04:15.777Z,101335.03
2022-08-19T16:06:55.664Z,101318.53
2022-08-19T16:09:27.745Z,101323.50
2022-08-19T16:12:01.746Z,101317.59
2022-08-19T16:14:30.544Z,101322.88
2022-08-19T16:16:57.337Z,101333.13
2022-08-19T16:19:25.208Z,101325.81
2022-08-19T16:21:54.597Z,101328.63
2022-08-19T16:24:23.676Z,101323.38
2022-08-19T16:26:51.134Z,101334.75
2022-08-19T16:29:33.282Z,101323.59
2022-08-19T16:32:02.805Z,101329.44
2022-08-19T16:34:30.400Z,101327.31
2022-08-19T16:36:57.246Z,101312.91
2022-08-19T16:39:24.450Z,101329.59
2022-08-19T16:41:51.945Z,101304.19
2022-08-19T16:44:20.980Z,101314.84
2022-08-19T16:46:55.739Z,101304.81
2022-08-19T16:49:54.539Z,101319.28
2022-08-19T16:52:14.824Z,101305.63
2022-08-19T16:54:43.624Z,101315.75
2022-08-19T16:57:12.106Z,101324.03
2022-08-19T16:59:49.031Z,101313.94
2022-08-19T17:02:22.854Z,101317.78
2022-08-19T17:04:57.496Z,101311.78
2022-08-19T17:07:27.111Z,101311.06
2022-08-19T17:09:53.879Z,101332.38
2022-08-19T17:12:30.468Z,101327.78
2022-08-19T17:15:01.059Z,101320.00
2022-08-19T17:17:29.307Z,101328.06
2022-08-19T17:19:56.747Z,101311.19
2022-08-19T17:22:24.036Z,101309.94
2022-08-19T17:24:50.731Z,101319.75
2022-08-19T17:27:19.852Z,101319.78
2022-08-19T17:29:47.263Z,101328.22
2022-08-19T17:32:15.399Z,101326.53
2022-08-19T17:34:42.136Z,101327.63
2022-08-19T17:37:09.243Z,101323.19
2022-08-19T17:39:39.566Z,101330.06
2022-08-19T17:42:08.192Z,101331.50
2022-08-19T17:44:36.853Z,101329.53
2022-08-19T17:47:04.644Z,101325.50
2022-08-19T17:49:32.655Z,101319.34
2022-08-19T17:52:02.608Z,101338.91
2022-08-19T17:54:33.682Z,101343.81
2022-08-19T17:57:01.653Z,101344.16
2022-08-19T17:59:30.068Z,101331.47
2022-08-19T18:01:57.198Z,101348.34
2022-08-19T18:04:25.924Z,101346.09
2022-08-19T18:06:54.936Z,101343.78
2022-08-19T18:09:41.716Z,101343.63
2022-08-19T18:12:11.822Z,101351.97
2022-08-19T18:14:39.564Z,101352.72
2022-08-19T18:17:12.037Z,101356.91
2022-08-19T18:19:41.512Z,101356.03
2022-08-19T18:22:10.515Z,101363.53
2022-08-19T18:24:42.190Z,101361.84
2022-08-19T18:27:10.224Z,101355.06
2022-08-19T18:29:38.650Z,101365.78
2022-08-19T18:32:12.668Z,101355.63
2022-08-19T18:34:41.057Z,101364.56
2022-08-19T18:37:07.738Z,101368.47
2022-08-19T18:39:53.343Z,101370.22
2022-08-19T18:42:38.923Z,101370.44
2022-08-19T18:45:25.251Z,101375.34
2022-08-19T18:48:26.904Z,101375.38
2022-08-19T18:50:59.815Z,101376.88
2022-08-19T18:53:28.991Z,101389.41
2022-08-19T18:55:56.520Z,101385.19
2022-08-19T18:58:32.526Z,101388.16
2022-08-19T19:01:01.955Z,101381.34
2022-08-19T19:03:29.063Z,101379.84
2022-08-19T19:05:55.931Z,101383.88
2022-08-19T19:08:27.006Z,101389.88
2022-08-19T19:10:54.903Z,101389.44
2022-08-19T19:13:21.891Z,101395.88
2022-08-19T19:15:48.610Z,101390.38
2022-08-19T19:18:15.324Z,101388.03
2022-08-19T19:20:42.825Z,101394.84
2022-08-19T19:23:09.713Z,101397.59
2022-08-19T19:25:49.980Z,101395.03
2022-08-19T19:28:18.845Z,101395.69
2022-08-19T19:30:45.576Z,101404.34
2022-08-19T19:33:12.243Z,101400.75
2022-08-19T19:35:41.173Z,101411.94
2022-08-19T19:38:14.116Z,101413.63
2022-08-19T19:40:43.372Z,101417.22
2022-08-19T19:43:10.095Z,101417.63
2022-08-19T19:45:38.348Z,101420.97
2022-08-19T19:48:05.936Z,101416.94
2022-08-19T19:50:32.726Z,101411.84
2022-08-19T19:52:59.637Z,101415.66
2022-08-19T19:55:27.291Z,101415.66
2022-08-19T19:57:54.491Z,101418.41
2022-08-19T20:00:21.871Z,101432.81
2022-08-19T20:02:50.858Z,101436.81
2022-08-19T20:05:20.915Z,101434.50
2022-08-19T20:08:27.460Z,101438.69
2022-08-19T20:10:54.126Z,101438.03
2022-08-19T20:13:21.787Z,101435.91
2022-08-19T20:15:48.562Z,101434.41
2022-08-19T20:18:15.718Z,101431.19
2022-08-19T20:20:43.799Z,101425.28
2022-08-19T20:23:11.025Z,101431.16
2022-08-19T20:25:38.648Z,101420.78
2022-08-19T20:28:05.806Z,101423.06
2022-08-19T20:30:33.479Z,101417.56
2022-08-19T20:33:00.799Z,101424.31
2022-08-19T20:35:27.877Z,101423.84
2022-08-19T20:37:58.225Z,101425.31
2022-08-19T20:40:26.091Z,101425.94
2022-08-19T20:42:52.803Z,101414.09
2022-08-19T20:45:33.110Z,101410.88
2022-08-19T20:48:03.411Z,101413.84
2022-08-19T20:50:32.352Z,101421.44
2022-08-19T20:52:59.529Z,101424.16
2022-08-19T20:55:28.257Z,101419.91
2022-08-19T20:57:55.508Z,101422.88
2022-08-19T21:00:22.441Z,101424.16
2022-08-19T21:02:49.235Z,101412.66
2022-08-19T21:05:18.662Z,101413.28
2022-08-19T21:07:45.380Z,101410.91
2022-08-19T21:10:12.459Z,101418.50
2022-08-19T21:12:39.561Z,101419.56
2022-08-19T21:15:07.341Z,101412.56
2022-08-19T21:17:34.300Z,101410.88
2022-08-19T21:20:39.334Z,101411.09
2022-08-19T21:27:50.051Z,101412.53
2022-08-19T21:31:16.562Z,101421.75
2022-08-19T21:38:34.348Z,101422.56
2022-08-19T21:42:01.354Z,101414.31
2022-08-19T21:45:28.130Z,101416.19
2022-08-19T21:48:54.590Z,101417.44
2022-08-19T21:55:54.046Z,101423.06
2022-08-19T21:59:20.633Z,101425.38
2022-08-19T22:01:50.596Z,101420.09
2022-08-19T22:04:23.689Z,101413.09
2022-08-19T22:06:53.299Z,101418.13
2022-08-19T22:09:20.019Z,101422.78
2022-08-19T22:11:46.859Z,101424.00
2022-08-19T22:14:13.909Z,101419.75
2022-08-19T22:16:40.795Z,101419.13
2022-08-19T22:19:08.128Z,101416.56
2022-08-19T22:21:40.262Z,101416.09
2022-08-19T22:24:08.318Z,101412.72
2022-08-19T22:26:35.064Z,101412.03
2022-08-19T22:29:02.060Z,101413.47
2022-08-19T22:31:28.819Z,101415.38
2022-08-19T22:33:56.104Z,101410.28
2022-08-19T22:36:22.778Z,101413.41
2022-08-19T22:38:49.443Z,101406.44
2022-08-19T22:41:16.436Z,101402.81
2022-08-19T22:43:43.759Z,101398.56
2022-08-19T22:46:15.080Z,101396.00
2022-08-19T22:48:44.988Z,101395.38
2022-08-19T22:51:46.938Z,101394.69
2022-08-19T22:54:14.135Z,101404.00
2022-08-19T22:56:40.820Z,101407.78
2022-08-19T22:59:08.662Z,101408.00
2022-08-19T23:01:39.610Z,101407.31
2022-08-19T23:04:06.258Z,101402.03
2022-08-19T23:06:35.039Z,101403.72
2022-08-19T23:09:07.242Z,101397.56
2022-08-19T23:11:38.095Z,101405.44
2022-08-19T23:14:09.957Z,101389.63
2022-08-19T23:16:36.605Z,101393.41
2022-08-19T23:19:03.714Z,101396.34
2022-08-19T23:21:31.177Z,101398.63
2022-08-19T23:23:58.075Z,101393.16
2022-08-19T23:26:24.785Z,101392.44
2022-08-19T23:29:10.266Z,101388.00
2022-08-19T23:31:36.959Z,101387.75
2022-08-19T23:34:04.013Z,101382.44
2022-08-19T23:36:31.165Z,101388.78
2022-08-19T23:38:59.598Z,101393.22
2022-08-19T23:41:27.939Z,101385.91
2022-08-19T23:43:55.106Z,101378.19
2022-08-19T23:46:27.463Z,101385.81
2022-08-19T23:48:55.826Z,101382.28
2022-08-19T23:51:22.915Z,101371.78
2022-08-19T23:53:49.801Z,101374.31
2022-08-19T23:56:16.955Z,101362.50
2022-08-19T23:58:43.681Z,101359.56
